Norborne, Missouri
Current Conditions -  °F | °C
As of 3:35 PM on Tuesday 21 Oct 2014 (Local Time) from KGPH Reporting Station
Clear Clear  
Wind Chill: 72°   Ceiling: Unl
Heat Index: 72°   Visibility: 10mi
Dew Point: 37°   Wind: 0mph
Humidity: 29%   Direction: NA
Pressure: 30.08"   Gusts: NA
Location:  39.3°N, 93.68°W
Report Text: KGPH 212035Z AUTO 00000KT 10SM CLR 22/03 A3008 RMK AO2
Loading
Personal Weather Stations






























Interactive Weather Map
Tropical Storm Tracking
New forecast layout! Learn more

10-Day Weather Forecast

Advertisements
Track Severe Weather on mobile